sensor_id;sensor_type;location;lat;lon;timestamp;pressure;altitude;pressure_sealevel;temperature
18782;BMP180;9519;51.890;8.970;2023-05-10T00:00:33;98617.00;;;16.00
18782;BMP180;9519;51.890;8.970;2023-05-10T00:05:35;98626.00;;;16.00
18782;BMP180;9519;51.890;8.970;2023-05-10T00:10:37;98615.00;;;16.00
18782;BMP180;9519;51.890;8.970;2023-05-10T00:15:42;98615.00;;;16.00
18782;BMP180;9519;51.890;8.970;2023-05-10T00:20:44;98616.00;;;15.90
18782;BMP180;9519;51.890;8.970;2023-05-10T00:25:46;98606.00;;;16.00
18782;BMP180;9519;51.890;8.970;2023-05-10T00:30:50;98609.00;;;15.90
18782;BMP180;9519;51.890;8.970;2023-05-10T00:35:52;98603.00;;;15.90
18782;BMP180;9519;51.890;8.970;2023-05-10T00:40:54;98604.00;;;15.90
18782;BMP180;9519;51.890;8.970;2023-05-10T00:45:57;98600.00;;;15.90
18782;BMP180;9519;51.890;8.970;2023-05-10T00:51:01;98603.00;;;15.80
18782;BMP180;9519;51.890;8.970;2023-05-10T00:56:03;98594.00;;;15.80
18782;BMP180;9519;51.890;8.970;2023-05-10T01:01:08;98600.00;;;15.80
18782;BMP180;9519;51.890;8.970;2023-05-10T01:06:10;98594.00;;;15.70
18782;BMP180;9519;51.890;8.970;2023-05-10T01:11:13;98580.00;;;15.70
18782;BMP180;9519;51.890;8.970;2023-05-10T01:16:17;98569.00;;;15.60
18782;BMP180;9519;51.890;8.970;2023-05-10T01:21:28;98583.00;;;15.60
18782;BMP180;9519;51.890;8.970;2023-05-10T01:27:37;98576.00;;;15.60
18782;BMP180;9519;51.890;8.970;2023-05-10T01:32:51;98570.00;;;15.60
18782;BMP180;9519;51.890;8.970;2023-05-10T01:38:05;98573.00;;;15.50
18782;BMP180;9519;51.890;8.970;2023-05-10T01:43:22;98575.00;;;15.40
18782;BMP180;9519;51.890;8.970;2023-05-10T01:48:28;98562.00;;;15.40
18782;BMP180;9519;51.890;8.970;2023-05-10T01:53:33;98564.00;;;15.40
18782;BMP180;9519;51.890;8.970;2023-05-10T01:58:40;98567.00;;;15.40
18782;BMP180;9519;51.890;8.970;2023-05-10T02:03:45;98557.00;;;15.40
18782;BMP180;9519;51.890;8.970;2023-05-10T02:08:50;98568.00;;;15.40
18782;BMP180;9519;51.890;8.970;2023-05-10T02:13:57;98577.00;;;15.40
18782;BMP180;9519;51.890;8.970;2023-05-10T02:19:02;98566.00;;;15.30
18782;BMP180;9519;51.890;8.970;2023-05-10T02:24:06;98577.00;;;15.30
18782;BMP180;9519;51.890;8.970;2023-05-10T02:29:11;98583.00;;;15.30
18782;BMP180;9519;51.890;8.970;2023-05-10T02:34:15;98574.00;;;15.30
18782;BMP180;9519;51.890;8.970;2023-05-10T02:39:18;98571.00;;;15.20
18782;BMP180;9519;51.890;8.970;2023-05-10T02:44:23;98580.00;;;15.20
18782;BMP180;9519;51.890;8.970;2023-05-10T02:49:27;98567.00;;;15.00
18782;BMP180;9519;51.890;8.970;2023-05-10T02:54:39;98567.00;;;14.70
18782;BMP180;9519;51.890;8.970;2023-05-10T02:59:42;98572.00;;;14.60
18782;BMP180;9519;51.890;8.970;2023-05-10T03:04:47;98574.00;;;14.40
18782;BMP180;9519;51.890;8.970;2023-05-10T03:09:49;98581.00;;;14.20
18782;BMP180;9519;51.890;8.970;2023-05-10T03:15:00;98592.00;;;13.90
18782;BMP180;9519;51.890;8.970;2023-05-10T03:20:10;98591.00;;;13.70
18782;BMP180;9519;51.890;8.970;2023-05-10T03:25:16;98591.00;;;13.60
18782;BMP180;9519;51.890;8.970;2023-05-10T03:30:20;98586.00;;;13.50
18782;BMP180;9519;51.890;8.970;2023-05-10T03:35:26;98598.00;;;13.40
18782;BMP180;9519;51.890;8.970;2023-05-10T03:40:29;98604.00;;;13.30
18782;BMP180;9519;51.890;8.970;2023-05-10T03:45:32;98600.00;;;13.30
18782;BMP180;9519;51.890;8.970;2023-05-10T03:50:36;98598.00;;;13.20
18782;BMP180;9519;51.890;8.970;2023-05-10T03:55:38;98605.00;;;13.20
18782;BMP180;9519;51.890;8.970;2023-05-10T04:00:40;98610.00;;;13.10
18782;BMP180;9519;51.890;8.970;2023-05-10T04:05:47;98611.00;;;13.10
18782;BMP180;9519;51.890;8.970;2023-05-10T04:10:49;98603.00;;;13.10
18782;BMP180;9519;51.890;8.970;2023-05-10T04:15:54;98607.00;;;13.10
18782;BMP180;9519;51.890;8.970;2023-05-10T04:20:57;98609.00;;;13.10
18782;BMP180;9519;51.890;8.970;2023-05-10T04:26:00;98611.00;;;13.20
18782;BMP180;9519;51.890;8.970;2023-05-10T04:31:03;98614.00;;;13.10
18782;BMP180;9519;51.890;8.970;2023-05-10T04:36:07;98614.00;;;13.20
18782;BMP180;9519;51.890;8.970;2023-05-10T04:41:10;98616.00;;;13.20
18782;BMP180;9519;51.890;8.970;2023-05-10T04:46:12;98628.00;;;13.20
18782;BMP180;9519;51.890;8.970;2023-05-10T04:51:16;98623.00;;;13.20
18782;BMP180;9519;51.890;8.970;2023-05-10T04:56:18;98619.00;;;13.10
18782;BMP180;9519;51.890;8.970;2023-05-10T05:01:20;98631.00;;;13.10
18782;BMP180;9519;51.890;8.970;2023-05-10T05:06:25;98648.00;;;13.00
18782;BMP180;9519;51.890;8.970;2023-05-10T05:11:27;98656.00;;;12.90
18782;BMP180;9519;51.890;8.970;2023-05-10T05:16:30;98647.00;;;12.90
18782;BMP180;9519;51.890;8.970;2023-05-10T05:21:34;98661.00;;;12.70
18782;BMP180;9519;51.890;8.970;2023-05-10T05:26:36;98666.00;;;12.70
18782;BMP180;9519;51.890;8.970;2023-05-10T05:31:38;98665.00;;;12.50
18782;BMP180;9519;51.890;8.970;2023-05-10T05:36:42;98678.00;;;12.50
18782;BMP180;9519;51.890;8.970;2023-05-10T05:41:44;98677.00;;;12.40
18782;BMP180;9519;51.890;8.970;2023-05-10T05:46:48;98683.00;;;12.40
18782;BMP180;9519;51.890;8.970;2023-05-10T05:51:51;98686.00;;;12.40
18782;BMP180;9519;51.890;8.970;2023-05-10T05:56:54;98698.00;;;12.30
18782;BMP180;9519;51.890;8.970;2023-05-10T06:01:57;98702.00;;;12.30
18782;BMP180;9519;51.890;8.970;2023-05-10T06:07:00;98706.00;;;12.20
18782;BMP180;9519;51.890;8.970;2023-05-10T06:12:03;98712.00;;;12.20
18782;BMP180;9519;51.890;8.970;2023-05-10T06:17:05;98715.00;;;12.20
18782;BMP180;9519;51.890;8.970;2023-05-10T06:22:09;98723.00;;;12.20
18782;BMP180;9519;51.890;8.970;2023-05-10T06:27:11;98744.00;;;12.20
18782;BMP180;9519;51.890;8.970;2023-05-10T06:32:13;98734.00;;;12.20
18782;BMP180;9519;51.890;8.970;2023-05-10T06:37:17;98739.00;;;12.30
18782;BMP180;9519;51.890;8.970;2023-05-10T06:42:19;98744.00;;;12.30
18782;BMP180;9519;51.890;8.970;2023-05-10T06:47:21;98737.00;;;12.30
18782;BMP180;9519;51.890;8.970;2023-05-10T06:52:24;98749.00;;;12.30
18782;BMP180;9519;51.890;8.970;2023-05-10T06:57:26;98753.00;;;12.20
18782;BMP180;9519;51.890;8.970;2023-05-10T07:02:28;98764.00;;;12.20
18782;BMP180;9519;51.890;8.970;2023-05-10T07:07:32;98761.00;;;12.20
18782;BMP180;9519;51.890;8.970;2023-05-10T07:12:34;98776.00;;;12.20
18782;BMP180;9519;51.890;8.970;2023-05-10T07:17:36;98773.00;;;12.20
18782;BMP180;9519;51.890;8.970;2023-05-10T07:22:39;98782.00;;;12.20
18782;BMP180;9519;51.890;8.970;2023-05-10T07:27:42;98784.00;;;12.20
18782;BMP180;9519;51.890;8.970;2023-05-10T07:32:44;98784.00;;;12.30
18782;BMP180;9519;51.890;8.970;2023-05-10T07:37:47;98788.00;;;12.30
18782;BMP180;9519;51.890;8.970;2023-05-10T07:42:49;98781.00;;;12.50
18782;BMP180;9519;51.890;8.970;2023-05-10T07:47:51;98801.00;;;12.50
18782;BMP180;9519;51.890;8.970;2023-05-10T07:52:55;98787.00;;;12.60
18782;BMP180;9519;51.890;8.970;2023-05-10T07:57:57;98803.00;;;12.70
18782;BMP180;9519;51.890;8.970;2023-05-10T08:03:01;98807.00;;;12.80
18782;BMP180;9519;51.890;8.970;2023-05-10T08:08:05;98798.00;;;12.90
18782;BMP180;9519;51.890;8.970;2023-05-10T08:13:07;98796.00;;;13.00
18782;BMP180;9519;51.890;8.970;2023-05-10T08:18:09;98814.00;;;13.10
18782;BMP180;9519;51.890;8.970;2023-05-10T08:23:13;98816.00;;;13.20
18782;BMP180;9519;51.890;8.970;2023-05-10T08:28:15;98818.00;;;13.30
18782;BMP180;9519;51.890;8.970;2023-05-10T08:33:18;98806.00;;;13.40
18782;BMP180;9519;51.890;8.970;2023-05-10T08:38:21;98815.00;;;13.50
18782;BMP180;9519;51.890;8.970;2023-05-10T08:43:27;98818.00;;;13.50
18782;BMP180;9519;51.890;8.970;2023-05-10T08:48:31;98825.00;;;13.60
18782;BMP180;9519;51.890;8.970;2023-05-10T08:53:37;98839.00;;;13.70
18782;BMP180;9519;51.890;8.970;2023-05-10T08:58:39;98845.00;;;13.70
18782;BMP180;9519;51.890;8.970;2023-05-10T09:03:41;98840.00;;;13.80
18782;BMP180;9519;51.890;8.970;2023-05-10T09:08:45;98843.00;;;13.90
18782;BMP180;9519;51.890;8.970;2023-05-10T09:13:50;98855.00;;;14.10
18782;BMP180;9519;51.890;8.970;2023-05-10T09:18:53;98846.00;;;14.20
18782;BMP180;9519;51.890;8.970;2023-05-10T09:23:56;98844.00;;;14.30
18782;BMP180;9519;51.890;8.970;2023-05-10T09:29:00;98861.00;;;14.30
18782;BMP180;9519;51.890;8.970;2023-05-10T09:34:03;98862.00;;;14.30
18782;BMP180;9519;51.890;8.970;2023-05-10T09:39:06;98877.00;;;14.30
18782;BMP180;9519;51.890;8.970;2023-05-10T09:44:08;98879.00;;;14.50
18782;BMP180;9519;51.890;8.970;2023-05-10T09:49:14;98885.00;;;14.50
18782;BMP180;9519;51.890;8.970;2023-05-10T09:54:19;98891.00;;;14.20
18782;BMP180;9519;51.890;8.970;2023-05-10T09:59:24;98892.00;;;14.00
18782;BMP180;9519;51.890;8.970;2023-05-10T10:04:27;98896.00;;;14.00
18782;BMP180;9519;51.890;8.970;2023-05-10T10:09:32;98907.00;;;14.00
18782;BMP180;9519;51.890;8.970;2023-05-10T10:14:35;98899.00;;;14.10
18782;BMP180;9519;51.890;8.970;2023-05-10T10:19:37;98900.00;;;14.30
18782;BMP180;9519;51.890;8.970;2023-05-10T10:24:41;98899.00;;;14.40
18782;BMP180;9519;51.890;8.970;2023-05-10T10:30:09;98893.00;;;14.50
18782;BMP180;9519;51.890;8.970;2023-05-10T10:35:12;98895.00;;;14.60
18782;BMP180;9519;51.890;8.970;2023-05-10T10:40:30;98894.00;;;14.70
18782;BMP180;9519;51.890;8.970;2023-05-10T10:45:32;98890.00;;;14.80
18782;BMP180;9519;51.890;8.970;2023-05-10T10:50:44;98887.00;;;14.80
18782;BMP180;9519;51.890;8.970;2023-05-10T10:55:48;98886.00;;;15.00
18782;BMP180;9519;51.890;8.970;2023-05-10T11:01:09;98880.00;;;15.20
18782;BMP180;9519;51.890;8.970;2023-05-10T11:06:12;98885.00;;;15.40
18782;BMP180;9519;51.890;8.970;2023-05-10T11:11:15;98877.00;;;15.60
18782;BMP180;9519;51.890;8.970;2023-05-10T11:16:19;98884.00;;;15.70
18782;BMP180;9519;51.890;8.970;2023-05-10T11:21:22;98882.00;;;15.90
18782;BMP180;9519;51.890;8.970;2023-05-10T11:26:30;98885.00;;;16.20
18782;BMP180;9519;51.890;8.970;2023-05-10T11:31:34;98884.00;;;16.30
18782;BMP180;9519;51.890;8.970;2023-05-10T11:36:36;98891.00;;;16.50
18782;BMP180;9519;51.890;8.970;2023-05-10T11:41:40;98886.00;;;16.60
18782;BMP180;9519;51.890;8.970;2023-05-10T11:46:42;98885.00;;;16.80
18782;BMP180;9519;51.890;8.970;2023-05-10T11:51:44;98880.00;;;17.00
18782;BMP180;9519;51.890;8.970;2023-05-10T11:56:49;98882.00;;;17.00
18782;BMP180;9519;51.890;8.970;2023-05-10T12:01:52;98890.00;;;17.10
18782;BMP180;9519;51.890;8.970;2023-05-10T12:06:54;98892.00;;;17.40
18782;BMP180;9519;51.890;8.970;2023-05-10T12:11:57;98890.00;;;17.50
18782;BMP180;9519;51.890;8.970;2023-05-10T12:17:02;98901.00;;;17.60
18782;BMP180;9519;51.890;8.970;2023-05-10T12:22:05;98902.00;;;17.70
18782;BMP180;9519;51.890;8.970;2023-05-10T12:27:09;98917.00;;;17.50
18782;BMP180;9519;51.890;8.970;2023-05-10T12:32:13;98923.00;;;17.40
18782;BMP180;9519;51.890;8.970;2023-05-10T12:37:15;98927.00;;;17.20
18782;BMP180;9519;51.890;8.970;2023-05-10T12:42:18;98945.00;;;17.10
18782;BMP180;9519;51.890;8.970;2023-05-10T12:47:20;98953.00;;;16.90
18782;BMP180;9519;51.890;8.970;2023-05-10T12:52:22;98837.00;;;16.50
18782;BMP180;9519;51.890;8.970;2023-05-10T12:57:26;98840.00;;;16.00
18782;BMP180;9519;51.890;8.970;2023-05-10T13:02:29;98949.00;;;15.60
18782;BMP180;9519;51.890;8.970;2023-05-10T13:07:31;99000.00;;;15.40
18782;BMP180;9519;51.890;8.970;2023-05-10T13:12:34;99000.00;;;15.10
18782;BMP180;9519;51.890;8.970;2023-05-10T13:17:36;99006.00;;;15.10
18782;BMP180;9519;51.890;8.970;2023-05-10T13:22:41;98992.00;;;15.00
18782;BMP180;9519;51.890;8.970;2023-05-10T13:27:44;99006.00;;;15.10
18782;BMP180;9519;51.890;8.970;2023-05-10T13:32:46;98994.00;;;15.20
18782;BMP180;9519;51.890;8.970;2023-05-10T13:37:48;99002.00;;;15.40
18782;BMP180;9519;51.890;8.970;2023-05-10T13:42:52;98978.00;;;15.60
18782;BMP180;9519;51.890;8.970;2023-05-10T13:47:54;98979.00;;;15.70
18782;BMP180;9519;51.890;8.970;2023-05-10T13:52:56;98986.00;;;15.80
18782;BMP180;9519;51.890;8.970;2023-05-10T13:57:59;98979.00;;;15.90
18782;BMP180;9519;51.890;8.970;2023-05-10T14:03:01;98974.00;;;16.20
18782;BMP180;9519;51.890;8.970;2023-05-10T14:08:03;98973.00;;;16.30
18782;BMP180;9519;51.890;8.970;2023-05-10T14:13:07;98977.00;;;16.40
18782;BMP180;9519;51.890;8.970;2023-05-10T14:18:09;98974.00;;;16.70
18782;BMP180;9519;51.890;8.970;2023-05-10T14:23:11;98972.00;;;17.00
18782;BMP180;9519;51.890;8.970;2023-05-10T14:28:14;98979.00;;;17.40
18782;BMP180;9519;51.890;8.970;2023-05-10T14:33:17;98972.00;;;17.40
18782;BMP180;9519;51.890;8.970;2023-05-10T14:38:20;98967.00;;;17.30
18782;BMP180;9519;51.890;8.970;2023-05-10T14:43:23;98977.00;;;17.30
18782;BMP180;9519;51.890;8.970;2023-05-10T14:48:25;98977.00;;;17.30
18782;BMP180;9519;51.890;8.970;2023-05-10T14:53:27;98988.00;;;17.30
18782;BMP180;9519;51.890;8.970;2023-05-10T14:58:30;98995.00;;;17.30
18782;BMP180;9519;51.890;8.970;2023-05-10T15:03:32;99003.00;;;17.20
18782;BMP180;9519;51.890;8.970;2023-05-10T15:08:34;98997.00;;;17.20
18782;BMP180;9519;51.890;8.970;2023-05-10T15:13:38;98999.00;;;17.10
18782;BMP180;9519;51.890;8.970;2023-05-10T15:18:40;99003.00;;;17.10
18782;BMP180;9519;51.890;8.970;2023-05-10T15:23:42;99005.00;;;16.90
18782;BMP180;9519;51.890;8.970;2023-05-10T15:28:46;99008.00;;;16.70
18782;BMP180;9519;51.890;8.970;2023-05-10T15:33:48;99020.00;;;16.50
18782;BMP180;9519;51.890;8.970;2023-05-10T15:38:50;99029.00;;;16.30
18782;BMP180;9519;51.890;8.970;2023-05-10T15:43:54;99032.00;;;16.30
18782;BMP180;9519;51.890;8.970;2023-05-10T15:48:57;99052.00;;;16.20
18782;BMP180;9519;51.890;8.970;2023-05-10T15:54:00;98894.00;;;16.00
18782;BMP180;9519;51.890;8.970;2023-05-10T15:59:03;98902.00;;;15.80
18782;BMP180;9519;51.890;8.970;2023-05-10T16:04:08;99073.00;;;15.80
18782;BMP180;9519;51.890;8.970;2023-05-10T16:09:10;98894.00;;;15.70
18782;BMP180;9519;51.890;8.970;2023-05-10T16:14:13;99076.00;;;15.60
18782;BMP180;9519;51.890;8.970;2023-05-10T16:19:16;98930.00;;;15.80
18782;BMP180;9519;51.890;8.970;2023-05-10T16:24:19;99081.00;;;15.80
18782;BMP180;9519;51.890;8.970;2023-05-10T16:29:22;98938.00;;;15.90
18782;BMP180;9519;51.890;8.970;2023-05-10T16:34:24;99098.00;;;15.90
18782;BMP180;9519;51.890;8.970;2023-05-10T16:39:26;99092.00;;;16.00
18782;BMP180;9519;51.890;8.970;2023-05-10T16:44:30;99099.00;;;16.00
18782;BMP180;9519;51.890;8.970;2023-05-10T16:49:33;99104.00;;;16.10
18782;BMP180;9519;51.890;8.970;2023-05-10T16:54:36;99107.00;;;16.20
18782;BMP180;9519;51.890;8.970;2023-05-10T16:59:39;99110.00;;;16.10
18782;BMP180;9519;51.890;8.970;2023-05-10T17:04:41;99116.00;;;16.10
18782;BMP180;9519;51.890;8.970;2023-05-10T17:09:45;99120.00;;;16.10
18782;BMP180;9519;51.890;8.970;2023-05-10T17:14:49;99120.00;;;16.00
18782;BMP180;9519;51.890;8.970;2023-05-10T17:19:51;98976.00;;;15.90
18782;BMP180;9519;51.890;8.970;2023-05-10T17:24:53;98989.00;;;15.90
18782;BMP180;9519;51.890;8.970;2023-05-10T17:29:57;98990.00;;;15.60
18782;BMP180;9519;51.890;8.970;2023-05-10T17:34:59;98995.00;;;15.30
18782;BMP180;9519;51.890;8.970;2023-05-10T17:40:01;99002.00;;;15.00
18782;BMP180;9519;51.890;8.970;2023-05-10T17:45:08;98989.00;;;14.90
18782;BMP180;9519;51.890;8.970;2023-05-10T17:50:10;99008.00;;;14.90
18782;BMP180;9519;51.890;8.970;2023-05-10T17:55:13;99007.00;;;14.80
18782;BMP180;9519;51.890;8.970;2023-05-10T18:00:17;99000.00;;;14.80
18782;BMP180;9519;51.890;8.970;2023-05-10T18:05:19;99004.00;;;14.80
18782;BMP180;9519;51.890;8.970;2023-05-10T18:10:23;99157.00;;;14.70
18782;BMP180;9519;51.890;8.970;2023-05-10T18:15:27;99161.00;;;14.70
18782;BMP180;9519;51.890;8.970;2023-05-10T18:20:30;99170.00;;;14.70
18782;BMP180;9519;51.890;8.970;2023-05-10T18:25:32;99018.00;;;14.70
18782;BMP180;9519;51.890;8.970;2023-05-10T18:30:36;99044.00;;;14.60
18782;BMP180;9519;51.890;8.970;2023-05-10T18:35:38;99027.00;;;14.60
18782;BMP180;9519;51.890;8.970;2023-05-10T18:40:41;99034.00;;;14.50
18782;BMP180;9519;51.890;8.970;2023-05-10T18:45:44;99038.00;;;14.50
18782;BMP180;9519;51.890;8.970;2023-05-10T18:50:46;99032.00;;;14.30
18782;BMP180;9519;51.890;8.970;2023-05-10T18:55:55;99040.00;;;14.30
18782;BMP180;9519;51.890;8.970;2023-05-10T19:00:59;99053.00;;;14.20
18782;BMP180;9519;51.890;8.970;2023-05-10T19:06:02;99054.00;;;14.10
18782;BMP180;9519;51.890;8.970;2023-05-10T19:11:04;99064.00;;;14.20
18782;BMP180;9519;51.890;8.970;2023-05-10T19:16:10;99070.00;;;14.20
18782;BMP180;9519;51.890;8.970;2023-05-10T19:21:14;99071.00;;;14.20
18782;BMP180;9519;51.890;8.970;2023-05-10T19:26:16;99075.00;;;14.10
18782;BMP180;9519;51.890;8.970;2023-05-10T19:31:20;99082.00;;;14.10
18782;BMP180;9519;51.890;8.970;2023-05-10T19:36:23;99083.00;;;14.10
18782;BMP180;9519;51.890;8.970;2023-05-10T19:41:25;99084.00;;;14.10
18782;BMP180;9519;51.890;8.970;2023-05-10T19:46:28;99078.00;;;14.10
18782;BMP180;9519;51.890;8.970;2023-05-10T19:51:30;99084.00;;;14.10
18782;BMP180;9519;51.890;8.970;2023-05-10T19:56:32;99077.00;;;14.10
18782;BMP180;9519;51.890;8.970;2023-05-10T20:01:36;99081.00;;;14.10
18782;BMP180;9519;51.890;8.970;2023-05-10T20:06:38;99078.00;;;14.00
18782;BMP180;9519;51.890;8.970;2023-05-10T20:11:40;99077.00;;;14.00
18782;BMP180;9519;51.890;8.970;2023-05-10T20:16:43;99084.00;;;13.90
18782;BMP180;9519;51.890;8.970;2023-05-10T20:21:46;99070.00;;;13.80
18782;BMP180;9519;51.890;8.970;2023-05-10T20:26:48;99074.00;;;13.80
18782;BMP180;9519;51.890;8.970;2023-05-10T20:31:51;99075.00;;;13.80
18782;BMP180;9519;51.890;8.970;2023-05-10T20:36:53;99085.00;;;13.80
18782;BMP180;9519;51.890;8.970;2023-05-10T20:41:55;99089.00;;;13.70
18782;BMP180;9519;51.890;8.970;2023-05-10T20:46:59;99073.00;;;13.70
18782;BMP180;9519;51.890;8.970;2023-05-10T20:52:01;99072.00;;;13.70
18782;BMP180;9519;51.890;8.970;2023-05-10T20:57:03;99061.00;;;13.60
18782;BMP180;9519;51.890;8.970;2023-05-10T21:02:06;99059.00;;;13.60
18782;BMP180;9519;51.890;8.970;2023-05-10T21:07:08;99055.00;;;13.60
18782;BMP180;9519;51.890;8.970;2023-05-10T21:12:11;99069.00;;;13.60
18782;BMP180;9519;51.890;8.970;2023-05-10T21:17:15;99061.00;;;13.60
18782;BMP180;9519;51.890;8.970;2023-05-10T21:22:17;99065.00;;;13.50
18782;BMP180;9519;51.890;8.970;2023-05-10T21:27:19;99063.00;;;13.50
18782;BMP180;9519;51.890;8.970;2023-05-10T21:32:23;99071.00;;;13.50
18782;BMP180;9519;51.890;8.970;2023-05-10T21:37:25;99065.00;;;13.50
18782;BMP180;9519;51.890;8.970;2023-05-10T21:42:27;99075.00;;;13.50
18782;BMP180;9519;51.890;8.970;2023-05-10T21:47:33;99072.00;;;13.40
18782;BMP180;9519;51.890;8.970;2023-05-10T21:52:36;99069.00;;;13.40
18782;BMP180;9519;51.890;8.970;2023-05-10T21:57:38;99068.00;;;13.30
18782;BMP180;9519;51.890;8.970;2023-05-10T22:02:45;99063.00;;;13.30
18782;BMP180;9519;51.890;8.970;2023-05-10T22:07:47;99067.00;;;13.30
18782;BMP180;9519;51.890;8.970;2023-05-10T22:12:49;99066.00;;;13.30
18782;BMP180;9519;51.890;8.970;2023-05-10T22:17:53;99072.00;;;13.20
18782;BMP180;9519;51.890;8.970;2023-05-10T22:22:55;99075.00;;;13.20
18782;BMP180;9519;51.890;8.970;2023-05-10T22:27:57;99078.00;;;13.20
18782;BMP180;9519;51.890;8.970;2023-05-10T22:33:00;99079.00;;;13.20
18782;BMP180;9519;51.890;8.970;2023-05-10T22:38:02;99076.00;;;13.10
18782;BMP180;9519;51.890;8.970;2023-05-10T22:43:06;99072.00;;;13.10
18782;BMP180;9519;51.890;8.970;2023-05-10T22:48:10;99078.00;;;13.10
18782;BMP180;9519;51.890;8.970;2023-05-10T22:53:12;99086.00;;;13.10
18782;BMP180;9519;51.890;8.970;2023-05-10T22:58:14;99084.00;;;13.20
18782;BMP180;9519;51.890;8.970;2023-05-10T23:03:18;99086.00;;;13.10
18782;BMP180;9519;51.890;8.970;2023-05-10T23:08:20;99084.00;;;13.10
18782;BMP180;9519;51.890;8.970;2023-05-10T23:13:22;99088.00;;;13.10
18782;BMP180;9519;51.890;8.970;2023-05-10T23:18:25;99085.00;;;13.10
18782;BMP180;9519;51.890;8.970;2023-05-10T23:23:27;99083.00;;;13.20
18782;BMP180;9519;51.890;8.970;2023-05-10T23:28:30;99086.00;;;13.20
18782;BMP180;9519;51.890;8.970;2023-05-10T23:33:33;99093.00;;;13.20
18782;BMP180;9519;51.890;8.970;2023-05-10T23:38:37;99082.00;;;13.20
18782;BMP180;9519;51.890;8.970;2023-05-10T23:43:39;99090.00;;;13.20
18782;BMP180;9519;51.890;8.970;2023-05-10T23:48:42;99083.00;;;13.20
18782;BMP180;9519;51.890;8.970;2023-05-10T23:53:44;99082.00;;;13.10
18782;BMP180;9519;51.890;8.970;2023-05-10T23:58:46;99101.00;;;13.10
